sensor_id;sensor_type;location;lat;lon;timestamp;P1;durP1;ratioP1;P2;durP2;ratioP2
77531;SDS011;70100;44.486;0.266;2023-12-22T00:02:10;10.90;;;3.23;;
77531;SDS011;70100;44.486;0.266;2023-12-22T00:07:42;7.23;;;1.97;;
77531;SDS011;70100;44.486;0.266;2023-12-22T00:13:15;6.07;;;1.47;;
77531;SDS011;70100;44.486;0.266;2023-12-22T00:18:47;2.93;;;1.00;;
77531;SDS011;70100;44.486;0.266;2023-12-22T00:24:19;4.73;;;1.20;;
77531;SDS011;70100;44.486;0.266;2023-12-22T00:29:53;6.40;;;1.33;;
77531;SDS011;70100;44.486;0.266;2023-12-22T00:35:25;3.43;;;0.57;;
77531;SDS011;70100;44.486;0.266;2023-12-22T00:40:58;1.20;;;0.50;;
77531;SDS011;70100;44.486;0.266;2023-12-22T00:46:31;9.23;;;1.17;;
77531;SDS011;70100;44.486;0.266;2023-12-22T00:52:04;1.43;;;0.77;;
77531;SDS011;70100;44.486;0.266;2023-12-22T00:57:37;4.60;;;1.43;;
77531;SDS011;70100;44.486;0.266;2023-12-22T01:03:11;-1.00;;;-1.00;;
77531;SDS011;70100;44.486;0.266;2023-12-22T01:08:42;4.83;;;1.10;;
77531;SDS011;70100;44.486;0.266;2023-12-22T01:14:15;-1.00;;;-1.00;;
77531;SDS011;70100;44.486;0.266;2023-12-22T01:19:47;14.90;;;1.97;;
77531;SDS011;70100;44.486;0.266;2023-12-22T01:25:20;5.83;;;1.13;;
77531;SDS011;70100;44.486;0.266;2023-12-22T01:30:53;7.23;;;1.77;;
77531;SDS011;70100;44.486;0.266;2023-12-22T01:36:26;10.37;;;1.70;;
77531;SDS011;70100;44.486;0.266;2023-12-22T01:41:58;4.97;;;0.63;;
77531;SDS011;70100;44.486;0.266;2023-12-22T01:47:32;3.97;;;1.00;;
77531;SDS011;70100;44.486;0.266;2023-12-22T01:53:05;6.00;;;1.07;;
77531;SDS011;70100;44.486;0.266;2023-12-22T01:58:37;5.33;;;1.20;;
77531;SDS011;70100;44.486;0.266;2023-12-22T02:04:10;1.03;;;0.60;;
77531;SDS011;70100;44.486;0.266;2023-12-22T02:09:43;2.50;;;0.97;;
77531;SDS011;70100;44.486;0.266;2023-12-22T02:15:17;-1.00;;;-1.00;;
77531;SDS011;70100;44.486;0.266;2023-12-22T02:20:48;9.07;;;1.20;;
77531;SDS011;70100;44.486;0.266;2023-12-22T02:26:25;1.83;;;1.40;;
77531;SDS011;70100;44.486;0.266;2023-12-22T02:31:54;3.57;;;1.23;;
77531;SDS011;70100;44.486;0.266;2023-12-22T02:37:27;1.70;;;0.60;;
77531;SDS011;70100;44.486;0.266;2023-12-22T02:43:01;1.90;;;0.70;;
77531;SDS011;70100;44.486;0.266;2023-12-22T02:48:33;3.97;;;0.70;;
77531;SDS011;70100;44.486;0.266;2023-12-22T02:54:06;-1.00;;;-1.00;;
77531;SDS011;70100;44.486;0.266;2023-12-22T02:59:37;13.93;;;1.40;;
77531;SDS011;70100;44.486;0.266;2023-12-22T03:05:09;5.00;;;0.97;;
77531;SDS011;70100;44.486;0.266;2023-12-22T03:10:42;6.37;;;0.77;;
77531;SDS011;70100;44.486;0.266;2023-12-22T03:16:14;6.23;;;1.33;;
77531;SDS011;70100;44.486;0.266;2023-12-22T03:21:46;1.80;;;0.93;;
77531;SDS011;70100;44.486;0.266;2023-12-22T03:27:20;4.83;;;0.90;;
77531;SDS011;70100;44.486;0.266;2023-12-22T03:32:51;4.63;;;0.90;;
77531;SDS011;70100;44.486;0.266;2023-12-22T03:38:24;-1.00;;;-1.00;;
77531;SDS011;70100;44.486;0.266;2023-12-22T03:43:58;3.07;;;0.70;;
77531;SDS011;70100;44.486;0.266;2023-12-22T03:49:31;6.30;;;0.57;;
77531;SDS011;70100;44.486;0.266;2023-12-22T03:55:04;9.73;;;1.20;;
77531;SDS011;70100;44.486;0.266;2023-12-22T04:00:37;2.90;;;0.67;;
77531;SDS011;70100;44.486;0.266;2023-12-22T04:06:10;3.20;;;0.60;;
77531;SDS011;70100;44.486;0.266;2023-12-22T04:11:42;4.57;;;0.70;;
77531;SDS011;70100;44.486;0.266;2023-12-22T04:17:14;2.70;;;0.60;;
77531;SDS011;70100;44.486;0.266;2023-12-22T04:22:47;5.77;;;1.57;;
77531;SDS011;70100;44.486;0.266;2023-12-22T04:28:20;1.87;;;0.70;;
77531;SDS011;70100;44.486;0.266;2023-12-22T04:33:52;2.40;;;0.70;;
77531;SDS011;70100;44.486;0.266;2023-12-22T04:39:25;3.83;;;0.90;;
77531;SDS011;70100;44.486;0.266;2023-12-22T04:44:57;6.53;;;1.53;;
77531;SDS011;70100;44.486;0.266;2023-12-22T04:50:29;5.30;;;1.30;;
77531;SDS011;70100;44.486;0.266;2023-12-22T04:56:02;9.60;;;1.63;;
77531;SDS011;70100;44.486;0.266;2023-12-22T05:01:34;2.57;;;0.83;;
77531;SDS011;70100;44.486;0.266;2023-12-22T05:07:07;1.40;;;0.80;;
77531;SDS011;70100;44.486;0.266;2023-12-22T05:12:39;13.53;;;1.83;;
77531;SDS011;70100;44.486;0.266;2023-12-22T05:18:13;5.70;;;1.27;;
77531;SDS011;70100;44.486;0.266;2023-12-22T05:23:44;9.33;;;1.50;;
77531;SDS011;70100;44.486;0.266;2023-12-22T05:29:17;13.67;;;2.17;;
77531;SDS011;70100;44.486;0.266;2023-12-22T05:34:49;6.80;;;2.17;;
77531;SDS011;70100;44.486;0.266;2023-12-22T05:40:22;5.07;;;1.40;;
77531;SDS011;70100;44.486;0.266;2023-12-22T05:45:55;9.77;;;3.10;;
77531;SDS011;70100;44.486;0.266;2023-12-22T05:51:27;7.47;;;1.83;;
77531;SDS011;70100;44.486;0.266;2023-12-22T05:57:00;2.87;;;1.20;;
77531;SDS011;70100;44.486;0.266;2023-12-22T06:02:32;5.27;;;2.27;;
77531;SDS011;70100;44.486;0.266;2023-12-22T06:08:05;6.70;;;1.93;;
77531;SDS011;70100;44.486;0.266;2023-12-22T06:13:37;11.33;;;1.57;;
77531;SDS011;70100;44.486;0.266;2023-12-22T06:19:10;3.80;;;0.90;;
77531;SDS011;70100;44.486;0.266;2023-12-22T06:24:43;1.63;;;0.80;;
77531;SDS011;70100;44.486;0.266;2023-12-22T06:30:15;2.47;;;1.00;;
77531;SDS011;70100;44.486;0.266;2023-12-22T06:35:47;4.93;;;1.27;;
77531;SDS011;70100;44.486;0.266;2023-12-22T06:41:21;9.33;;;1.60;;
77531;SDS011;70100;44.486;0.266;2023-12-22T06:46:54;-1.00;;;-1.00;;
77531;SDS011;70100;44.486;0.266;2023-12-22T06:52:27;3.20;;;1.23;;
77531;SDS011;70100;44.486;0.266;2023-12-22T06:58:00;3.67;;;1.17;;
77531;SDS011;70100;44.486;0.266;2023-12-22T07:03:32;2.87;;;1.17;;
77531;SDS011;70100;44.486;0.266;2023-12-22T07:14:38;15.07;;;2.90;;
77531;SDS011;70100;44.486;0.266;2023-12-22T07:20:12;22.77;;;4.67;;
77531;SDS011;70100;44.486;0.266;2023-12-22T07:25:46;35.07;;;8.67;;
77531;SDS011;70100;44.486;0.266;2023-12-22T07:31:18;18.70;;;5.27;;
77531;SDS011;70100;44.486;0.266;2023-12-22T07:36:51;44.73;;;6.13;;
77531;SDS011;70100;44.486;0.266;2023-12-22T07:42:23;27.90;;;7.07;;
77531;SDS011;70100;44.486;0.266;2023-12-22T07:47:56;71.70;;;10.60;;
77531;SDS011;70100;44.486;0.266;2023-12-22T07:53:30;65.07;;;14.80;;
77531;SDS011;70100;44.486;0.266;2023-12-22T07:59:03;5.67;;;2.83;;
77531;SDS011;70100;44.486;0.266;2023-12-22T08:04:36;6.00;;;1.80;;
77531;SDS011;70100;44.486;0.266;2023-12-22T08:10:09;15.07;;;3.73;;
77531;SDS011;70100;44.486;0.266;2023-12-22T08:15:42;7.90;;;2.33;;
77531;SDS011;70100;44.486;0.266;2023-12-22T08:21:17;10.57;;;4.67;;
77531;SDS011;70100;44.486;0.266;2023-12-22T08:26:50;13.30;;;5.17;;
77531;SDS011;70100;44.486;0.266;2023-12-22T08:32:21;15.37;;;5.37;;
77531;SDS011;70100;44.486;0.266;2023-12-22T08:37:53;17.07;;;8.67;;
77531;SDS011;70100;44.486;0.266;2023-12-22T08:43:26;14.70;;;6.93;;
77531;SDS011;70100;44.486;0.266;2023-12-22T08:49:00;7.90;;;2.87;;
77531;SDS011;70100;44.486;0.266;2023-12-22T08:54:33;7.13;;;4.03;;
77531;SDS011;70100;44.486;0.266;2023-12-22T09:00:07;6.20;;;3.40;;
77531;SDS011;70100;44.486;0.266;2023-12-22T09:05:40;9.90;;;4.30;;
77531;SDS011;70100;44.486;0.266;2023-12-22T09:11:12;5.23;;;2.07;;
77531;SDS011;70100;44.486;0.266;2023-12-22T09:16:46;4.93;;;1.97;;
77531;SDS011;70100;44.486;0.266;2023-12-22T09:22:17;2.43;;;1.67;;
77531;SDS011;70100;44.486;0.266;2023-12-22T09:27:50;3.47;;;1.80;;
77531;SDS011;70100;44.486;0.266;2023-12-22T09:33:23;2.63;;;1.70;;
77531;SDS011;70100;44.486;0.266;2023-12-22T09:38:55;2.83;;;1.43;;
77531;SDS011;70100;44.486;0.266;2023-12-22T09:44:29;1.87;;;1.00;;
77531;SDS011;70100;44.486;0.266;2023-12-22T09:50:02;3.03;;;1.27;;
77531;SDS011;70100;44.486;0.266;2023-12-22T09:55:33;2.00;;;1.00;;
77531;SDS011;70100;44.486;0.266;2023-12-22T10:01:06;2.80;;;1.17;;
77531;SDS011;70100;44.486;0.266;2023-12-22T10:06:38;3.33;;;1.37;;
77531;SDS011;70100;44.486;0.266;2023-12-22T10:12:11;2.37;;;0.63;;
77531;SDS011;70100;44.486;0.266;2023-12-22T10:17:44;3.87;;;0.90;;
77531;SDS011;70100;44.486;0.266;2023-12-22T10:23:17;2.50;;;0.50;;
77531;SDS011;70100;44.486;0.266;2023-12-22T10:28:50;1.63;;;1.43;;
77531;SDS011;70100;44.486;0.266;2023-12-22T10:34:21;4.43;;;1.40;;
77531;SDS011;70100;44.486;0.266;2023-12-22T10:39:54;4.67;;;1.63;;
77531;SDS011;70100;44.486;0.266;2023-12-22T10:45:26;8.47;;;3.87;;
77531;SDS011;70100;44.486;0.266;2023-12-22T10:50:58;5.40;;;2.47;;
77531;SDS011;70100;44.486;0.266;2023-12-22T10:56:30;1.43;;;0.70;;
77531;SDS011;70100;44.486;0.266;2023-12-22T11:02:03;3.07;;;1.20;;
77531;SDS011;70100;44.486;0.266;2023-12-22T11:07:35;6.43;;;3.20;;
77531;SDS011;70100;44.486;0.266;2023-12-22T11:13:08;0.40;;;0.30;;
77531;SDS011;70100;44.486;0.266;2023-12-22T11:18:41;1.53;;;0.30;;
77531;SDS011;70100;44.486;0.266;2023-12-22T11:24:15;0.97;;;0.87;;
77531;SDS011;70100;44.486;0.266;2023-12-22T11:29:47;4.13;;;0.70;;
77531;SDS011;70100;44.486;0.266;2023-12-22T11:41:11;6.77;;;1.03;;
77531;SDS011;70100;44.486;0.266;2023-12-22T11:46:24;3.67;;;1.00;;
77531;SDS011;70100;44.486;0.266;2023-12-22T11:51:56;0.23;;;0.23;;
77531;SDS011;70100;44.486;0.266;2023-12-22T11:57:31;0.20;;;0.20;;
77531;SDS011;70100;44.486;0.266;2023-12-22T12:03:05;3.40;;;1.03;;
77531;SDS011;70100;44.486;0.266;2023-12-22T12:08:32;0.43;;;0.40;;
77531;SDS011;70100;44.486;0.266;2023-12-22T12:14:07;0.30;;;0.20;;
77531;SDS011;70100;44.486;0.266;2023-12-22T12:19:39;2.20;;;0.53;;
77531;SDS011;70100;44.486;0.266;2023-12-22T12:25:11;0.40;;;0.40;;
77531;SDS011;70100;44.486;0.266;2023-12-22T12:30:44;0.87;;;0.40;;
77531;SDS011;70100;44.486;0.266;2023-12-22T12:36:17;0.17;;;0.17;;
77531;SDS011;70100;44.486;0.266;2023-12-22T12:41:52;0.63;;;0.43;;
77531;SDS011;70100;44.486;0.266;2023-12-22T12:47:24;0.60;;;0.47;;
77531;SDS011;70100;44.486;0.266;2023-12-22T12:52:57;1.87;;;0.50;;
77531;SDS011;70100;44.486;0.266;2023-12-22T12:58:30;0.43;;;0.30;;
77531;SDS011;70100;44.486;0.266;2023-12-22T13:04:02;0.50;;;0.30;;
77531;SDS011;70100;44.486;0.266;2023-12-22T13:09:34;-1.00;;;-1.00;;
77531;SDS011;70100;44.486;0.266;2023-12-22T13:15:07;1.03;;;0.40;;
77531;SDS011;70100;44.486;0.266;2023-12-22T13:20:39;0.73;;;0.53;;
77531;SDS011;70100;44.486;0.266;2023-12-22T13:26:20;1.23;;;0.60;;
77531;SDS011;70100;44.486;0.266;2023-12-22T13:31:45;0.47;;;0.20;;
77531;SDS011;70100;44.486;0.266;2023-12-22T13:37:17;0.40;;;0.30;;
77531;SDS011;70100;44.486;0.266;2023-12-22T13:42:53;1.07;;;0.40;;
77531;SDS011;70100;44.486;0.266;2023-12-22T13:48:24;1.40;;;0.60;;
77531;SDS011;70100;44.486;0.266;2023-12-22T13:53:59;4.13;;;0.63;;
77531;SDS011;70100;44.486;0.266;2023-12-22T13:59:31;1.77;;;0.87;;
77531;SDS011;70100;44.486;0.266;2023-12-22T14:05:02;0.43;;;0.43;;
77531;SDS011;70100;44.486;0.266;2023-12-22T14:10:35;2.23;;;0.77;;
77531;SDS011;70100;44.486;0.266;2023-12-22T14:16:07;0.87;;;0.73;;
77531;SDS011;70100;44.486;0.266;2023-12-22T14:21:40;0.50;;;0.50;;
77531;SDS011;70100;44.486;0.266;2023-12-22T14:27:13;2.77;;;1.10;;
77531;SDS011;70100;44.486;0.266;2023-12-22T14:32:47;0.87;;;0.50;;
77531;SDS011;70100;44.486;0.266;2023-12-22T14:38:19;0.50;;;0.50;;
77531;SDS011;70100;44.486;0.266;2023-12-22T14:43:53;2.80;;;1.53;;
77531;SDS011;70100;44.486;0.266;2023-12-22T14:49:24;3.90;;;0.97;;
77531;SDS011;70100;44.486;0.266;2023-12-22T14:54:56;1.43;;;1.33;;
77531;SDS011;70100;44.486;0.266;2023-12-22T15:00:29;2.47;;;0.70;;
77531;SDS011;70100;44.486;0.266;2023-12-22T15:06:02;1.03;;;0.60;;
77531;SDS011;70100;44.486;0.266;2023-12-22T15:11:35;3.83;;;1.07;;
77531;SDS011;70100;44.486;0.266;2023-12-22T15:17:07;6.43;;;1.40;;
77531;SDS011;70100;44.486;0.266;2023-12-22T15:22:40;-1.00;;;-1.00;;
77531;SDS011;70100;44.486;0.266;2023-12-22T15:28:12;5.47;;;1.60;;
77531;SDS011;70100;44.486;0.266;2023-12-22T15:33:45;6.37;;;1.63;;
77531;SDS011;70100;44.486;0.266;2023-12-22T15:39:18;15.13;;;2.13;;
77531;SDS011;70100;44.486;0.266;2023-12-22T15:44:51;6.13;;;1.47;;
77531;SDS011;70100;44.486;0.266;2023-12-22T15:50:23;8.93;;;1.57;;
77531;SDS011;70100;44.486;0.266;2023-12-22T15:55:57;13.73;;;1.70;;
77531;SDS011;70100;44.486;0.266;2023-12-22T16:01:29;7.10;;;2.13;;
77531;SDS011;70100;44.486;0.266;2023-12-22T16:07:02;16.03;;;3.77;;
77531;SDS011;70100;44.486;0.266;2023-12-22T16:12:35;-1.00;;;-1.00;;
77531;SDS011;70100;44.486;0.266;2023-12-22T16:18:09;6.60;;;2.33;;
77531;SDS011;70100;44.486;0.266;2023-12-22T16:23:41;13.73;;;2.07;;
77531;SDS011;70100;44.486;0.266;2023-12-22T16:29:13;15.83;;;2.13;;
77531;SDS011;70100;44.486;0.266;2023-12-22T16:34:47;10.97;;;3.53;;
77531;SDS011;70100;44.486;0.266;2023-12-22T16:40:20;16.20;;;3.07;;
77531;SDS011;70100;44.486;0.266;2023-12-22T16:45:52;14.03;;;2.63;;
77531;SDS011;70100;44.486;0.266;2023-12-22T16:51:24;17.07;;;3.87;;
77531;SDS011;70100;44.486;0.266;2023-12-22T16:56:57;23.53;;;4.17;;
77531;SDS011;70100;44.486;0.266;2023-12-22T17:02:29;15.47;;;2.67;;
77531;SDS011;70100;44.486;0.266;2023-12-22T17:08:01;12.40;;;2.80;;
77531;SDS011;70100;44.486;0.266;2023-12-22T17:13:33;7.33;;;3.53;;
77531;SDS011;70100;44.486;0.266;2023-12-22T17:19:06;-1.00;;;-1.00;;
77531;SDS011;70100;44.486;0.266;2023-12-22T17:24:42;20.17;;;5.50;;
77531;SDS011;70100;44.486;0.266;2023-12-22T17:30:10;31.20;;;8.43;;
77531;SDS011;70100;44.486;0.266;2023-12-22T17:35:44;22.20;;;5.33;;
77531;SDS011;70100;44.486;0.266;2023-12-22T17:41:14;20.80;;;4.77;;
77531;SDS011;70100;44.486;0.266;2023-12-22T17:46:46;14.40;;;4.57;;
77531;SDS011;70100;44.486;0.266;2023-12-22T17:52:20;17.50;;;4.70;;
77531;SDS011;70100;44.486;0.266;2023-12-22T17:57:52;16.00;;;3.00;;
77531;SDS011;70100;44.486;0.266;2023-12-22T18:03:25;17.23;;;3.43;;
77531;SDS011;70100;44.486;0.266;2023-12-22T18:08:58;12.57;;;2.93;;
77531;SDS011;70100;44.486;0.266;2023-12-22T18:14:29;11.57;;;2.67;;
77531;SDS011;70100;44.486;0.266;2023-12-22T18:20:03;16.50;;;3.60;;
77531;SDS011;70100;44.486;0.266;2023-12-22T18:25:34;15.17;;;5.70;;
77531;SDS011;70100;44.486;0.266;2023-12-22T18:31:07;20.50;;;4.93;;
77531;SDS011;70100;44.486;0.266;2023-12-22T18:36:42;15.30;;;4.23;;
77531;SDS011;70100;44.486;0.266;2023-12-22T18:42:13;-1.00;;;-1.00;;
77531;SDS011;70100;44.486;0.266;2023-12-22T18:47:47;23.67;;;5.50;;
77531;SDS011;70100;44.486;0.266;2023-12-22T18:53:19;17.93;;;3.67;;
77531;SDS011;70100;44.486;0.266;2023-12-22T18:58:53;17.73;;;3.27;;
77531;SDS011;70100;44.486;0.266;2023-12-22T19:04:26;-1.00;;;-1.00;;
77531;SDS011;70100;44.486;0.266;2023-12-22T19:09:59;23.50;;;3.30;;
77531;SDS011;70100;44.486;0.266;2023-12-22T19:15:32;-1.00;;;-1.00;;
77531;SDS011;70100;44.486;0.266;2023-12-22T19:21:04;4.00;;;1.60;;
77531;SDS011;70100;44.486;0.266;2023-12-22T19:26:38;7.53;;;2.77;;
77531;SDS011;70100;44.486;0.266;2023-12-22T19:32:10;10.90;;;2.43;;
77531;SDS011;70100;44.486;0.266;2023-12-22T19:37:43;15.03;;;4.73;;
77531;SDS011;70100;44.486;0.266;2023-12-22T19:43:16;19.83;;;5.80;;
77531;SDS011;70100;44.486;0.266;2023-12-22T19:48:49;13.30;;;4.47;;
77531;SDS011;70100;44.486;0.266;2023-12-22T19:54:22;19.87;;;6.70;;
77531;SDS011;70100;44.486;0.266;2023-12-22T19:59:54;13.70;;;4.30;;
77531;SDS011;70100;44.486;0.266;2023-12-22T20:05:27;13.30;;;3.57;;
77531;SDS011;70100;44.486;0.266;2023-12-22T20:10:58;13.33;;;3.80;;
77531;SDS011;70100;44.486;0.266;2023-12-22T20:16:30;12.63;;;3.60;;
77531;SDS011;70100;44.486;0.266;2023-12-22T20:22:04;8.83;;;2.57;;
77531;SDS011;70100;44.486;0.266;2023-12-22T20:27:35;18.97;;;3.20;;
77531;SDS011;70100;44.486;0.266;2023-12-22T20:33:08;19.83;;;4.37;;
77531;SDS011;70100;44.486;0.266;2023-12-22T20:38:41;9.10;;;3.13;;
77531;SDS011;70100;44.486;0.266;2023-12-22T20:44:13;15.37;;;3.93;;
77531;SDS011;70100;44.486;0.266;2023-12-22T20:49:46;19.43;;;4.27;;
77531;SDS011;70100;44.486;0.266;2023-12-22T20:55:19;10.60;;;2.53;;
77531;SDS011;70100;44.486;0.266;2023-12-22T21:00:51;16.00;;;3.90;;
77531;SDS011;70100;44.486;0.266;2023-12-22T21:06:23;13.67;;;3.30;;
77531;SDS011;70100;44.486;0.266;2023-12-22T21:11:56;13.27;;;3.30;;
77531;SDS011;70100;44.486;0.266;2023-12-22T21:17:28;5.47;;;2.37;;
77531;SDS011;70100;44.486;0.266;2023-12-22T21:23:03;3.33;;;1.93;;
77531;SDS011;70100;44.486;0.266;2023-12-22T21:28:35;21.60;;;4.30;;
77531;SDS011;70100;44.486;0.266;2023-12-22T21:34:09;19.17;;;5.30;;
77531;SDS011;70100;44.486;0.266;2023-12-22T21:39:42;19.50;;;2.90;;
77531;SDS011;70100;44.486;0.266;2023-12-22T21:45:17;14.23;;;2.63;;
77531;SDS011;70100;44.486;0.266;2023-12-22T21:50:48;-1.00;;;-1.00;;
77531;SDS011;70100;44.486;0.266;2023-12-22T21:56:21;12.13;;;2.07;;
77531;SDS011;70100;44.486;0.266;2023-12-22T22:01:54;9.40;;;2.90;;
77531;SDS011;70100;44.486;0.266;2023-12-22T22:07:25;14.77;;;2.03;;
77531;SDS011;70100;44.486;0.266;2023-12-22T22:12:58;-1.00;;;-1.00;;
77531;SDS011;70100;44.486;0.266;2023-12-22T22:18:32;23.10;;;3.00;;
77531;SDS011;70100;44.486;0.266;2023-12-22T22:24:05;6.37;;;2.13;;
77531;SDS011;70100;44.486;0.266;2023-12-22T22:29:36;5.60;;;2.57;;
77531;SDS011;70100;44.486;0.266;2023-12-22T22:35:09;18.37;;;2.50;;
77531;SDS011;70100;44.486;0.266;2023-12-22T22:40:41;-1.00;;;-1.00;;
77531;SDS011;70100;44.486;0.266;2023-12-22T22:46:14;16.33;;;3.57;;
77531;SDS011;70100;44.486;0.266;2023-12-22T22:51:47;16.47;;;3.30;;
77531;SDS011;70100;44.486;0.266;2023-12-22T22:57:19;11.40;;;2.20;;
77531;SDS011;70100;44.486;0.266;2023-12-22T23:02:52;16.97;;;2.73;;
77531;SDS011;70100;44.486;0.266;2023-12-22T23:08:24;14.80;;;3.07;;
77531;SDS011;70100;44.486;0.266;2023-12-22T23:13:57;15.97;;;3.73;;
77531;SDS011;70100;44.486;0.266;2023-12-22T23:19:29;15.67;;;2.97;;
77531;SDS011;70100;44.486;0.266;2023-12-22T23:25:04;13.37;;;2.33;;
77531;SDS011;70100;44.486;0.266;2023-12-22T23:30:36;7.10;;;2.30;;
77531;SDS011;70100;44.486;0.266;2023-12-22T23:36:08;14.47;;;3.23;;
77531;SDS011;70100;44.486;0.266;2023-12-22T23:41:41;7.50;;;1.70;;
77531;SDS011;70100;44.486;0.266;2023-12-22T23:47:13;12.77;;;2.50;;
77531;SDS011;70100;44.486;0.266;2023-12-22T23:52:46;5.40;;;2.27;;
77531;SDS011;70100;44.486;0.266;2023-12-22T23:58:18;12.23;;;1.53;;
